Altenburg, Missouri
Current Conditions -  °F | °C
As of 6:52 PM on Saturday 22 Nov 2014 (Local Time) from KMDH Reporting Station
Overcast Overcast  
Wind Chill: 59°   Ceiling: 6000
Heat Index: 59°   Visibility: 10mi
Dew Point: 40°   Wind: 13mph
Humidity: 49%   Direction: 200°SSW
Pressure: 30.01"   Gusts: NA
Location:  37.63°N, 89.59°W
Report Text: KMDH 230052Z AUTO 20011KT 10SM BKN060 OVC090 15/04 A3001 RMK AO2 RAE2355 SLP160 P0000 T01500044
Loading
Personal Weather Stations






























Interactive Weather Map New forecast layout! Learn more

10-Day Weather Forecast

Advertisements
Track Severe Weather on mobile